Aniak Airport


Codes: PANI/ANI
Name: Aniak Airport
City: Aniak
Country: United States
Elevation: 88 ft.
Wikipedia:

Photos at Aniak Airport


   Photos courtesy of SpottingLog. You can add your own sightings and photos by signing up for a free trial today.



No photos found.

Weather at Aniak Airport


Time (UTC)DescriptionTempratureWindCloud coverageVisibilityPressureHumidity
21-Jun-2024 12:00Overcast Clouds11°C2 mph, S100%10000m1015hPa100%
21-Jun-2024 15:00Overcast Clouds11°C2 mph, SE100%10000m1015hPa97%
21-Jun-2024 18:00Overcast Clouds13°C2 mph, SW100%10000m1014hPa85%
21-Jun-2024 21:00Overcast Clouds18°C4 mph, W100%10000m1014hPa61%
22-Jun-2024 00:00Light Rain20°C7 mph, W100%10000m1013hPa55%
22-Jun-2024 03:00Light Rain21°C4 mph, W100%10000m1012hPa52%
22-Jun-2024 06:00Light Rain16°C7 mph, NW100%10000m1012hPa75%
22-Jun-2024 09:00Light Rain14°C2 mph, W100%10000m1013hPa83%
22-Jun-2024 12:00Light Rain13°C4 mph, W100%10000m1014hPa85%
22-Jun-2024 15:00Light Rain13°C4 mph, W100%10000m1014hPa86%
22-Jun-2024 18:00Light Rain14°C7 mph, W100%10000m1015hPa75%
22-Jun-2024 21:00Overcast Clouds17°C7 mph, NW100%10000m1014hPa57%
23-Jun-2024 00:00Light Rain19°C7 mph, NW100%10000m1013hPa57%
23-Jun-2024 03:00Light Rain17°C4 mph, E100%10000m1013hPa73%
23-Jun-2024 06:00Light Rain15°C2 mph, E100%10000m1013hPa80%
23-Jun-2024 09:00Overcast Clouds12°C4 mph, N95%10000m1013hPa81%
23-Jun-2024 12:00Overcast Clouds11°C4 mph, NW98%10000m1013hPa83%
23-Jun-2024 15:00Overcast Clouds11°C4 mph, W99%10000m1012hPa83%
23-Jun-2024 18:00Overcast Clouds13°C7 mph, NW98%10000m1012hPa72%
23-Jun-2024 21:00Overcast Clouds14°C7 mph, NW100%10000m1012hPa72%
24-Jun-2024 00:00Overcast Clouds14°C7 mph, N100%10000m1012hPa72%
24-Jun-2024 03:00Overcast Clouds15°C4 mph, NW100%10000m1011hPa68%
24-Jun-2024 06:00Overcast Clouds15°C4 mph, W91%10000m1011hPa71%
24-Jun-2024 09:00Broken Clouds11°C4 mph, NW53%10000m1011hPa83%
24-Jun-2024 12:00Scattered Clouds9°C2 mph, W37%10000m1012hPa90%
24-Jun-2024 15:00Few Clouds11°C2 mph, W14%10000m1012hPa88%
24-Jun-2024 18:00Scattered Clouds14°C7 mph, W30%10000m1012hPa69%
24-Jun-2024 21:00Overcast Clouds13°C7 mph, W95%10000m1013hPa71%
25-Jun-2024 00:00Overcast Clouds14°C4 mph, W97%10000m1013hPa71%
25-Jun-2024 03:00Overcast Clouds18°C4 mph, SW96%10000m1013hPa56%
25-Jun-2024 06:00Broken Clouds17°C4 mph, SW67%10000m1013hPa64%
25-Jun-2024 09:00Broken Clouds13°C4 mph, S61%10000m1013hPa81%
25-Jun-2024 12:00Scattered Clouds11°C2 mph, S46%10000m1014hPa86%
25-Jun-2024 15:00Broken Clouds13°C2 mph, NE65%10000m1014hPa82%
25-Jun-2024 18:00Broken Clouds16°C2 mph, SE77%10000m1014hPa68%
25-Jun-2024 21:00Overcast Clouds19°C2 mph, E88%10000m1014hPa56%
26-Jun-2024 00:00Broken Clouds23°C2 mph, E63%10000m1013hPa44%
26-Jun-2024 03:00Overcast Clouds21°C2 mph, E91%10000m1012hPa55%
26-Jun-2024 06:00Light Rain17°C2 mph, NW96%10000m1012hPa73%
26-Jun-2024 09:00Light Rain15°C2 mph, SE100%10000m1012hPa77%